createdAt,value
2018-08-13T00:01:38.039Z,25.13
2018-08-13T00:04:07.259Z,25.10
2018-08-13T00:06:36.410Z,25.07
2018-08-13T00:09:07.531Z,25.04
2018-08-13T00:11:37.888Z,24.99
2018-08-13T00:14:06.889Z,24.98
2018-08-13T00:16:36.175Z,24.94
2018-08-13T00:19:05.515Z,24.90
2018-08-13T00:21:34.735Z,24.86
2018-08-13T00:24:03.939Z,24.82
2018-08-13T00:26:33.107Z,24.78
2018-08-13T00:29:02.235Z,24.76
2018-08-13T00:31:31.448Z,24.72
2018-08-13T00:34:01.395Z,24.70
2018-08-13T00:36:30.509Z,24.68
2018-08-13T00:38:59.547Z,24.66
2018-08-13T00:41:28.829Z,24.65
2018-08-13T00:43:58.342Z,24.64
2018-08-13T00:46:27.793Z,24.63
2018-08-13T00:48:56.845Z,24.62
2018-08-13T00:51:26.284Z,24.62
2018-08-13T00:53:55.667Z,24.61
2018-08-13T00:56:24.760Z,24.61
2018-08-13T00:58:54.007Z,24.60
2018-08-13T01:01:23.380Z,24.60
2018-08-13T01:03:52.588Z,24.58
2018-08-13T01:06:21.659Z,24.56
2018-08-13T01:08:51.083Z,24.57
2018-08-13T01:11:20.458Z,24.57
2018-08-13T01:13:49.936Z,24.55
2018-08-13T01:16:19.300Z,24.55
2018-08-13T01:18:48.524Z,24.55
2018-08-13T01:21:17.973Z,24.54
2018-08-13T01:23:47.172Z,24.53
2018-08-13T01:26:16.713Z,24.51
2018-08-13T01:28:45.800Z,24.50
2018-08-13T01:31:15.256Z,24.49
2018-08-13T01:33:44.449Z,24.45
2018-08-13T01:36:13.837Z,24.41
2018-08-13T01:38:43.189Z,24.37
2018-08-13T01:41:13.305Z,24.33
2018-08-13T01:43:42.735Z,24.28
2018-08-13T01:46:12.037Z,24.24
2018-08-13T01:48:41.598Z,24.22
2018-08-13T01:51:11.560Z,24.21
2018-08-13T01:53:40.985Z,24.21
2018-08-13T01:56:10.230Z,24.20
2018-08-13T01:58:45.775Z,24.18
2018-08-13T02:01:15.503Z,24.17
2018-08-13T02:03:44.923Z,24.18
2018-08-13T02:06:14.057Z,24.17
2018-08-13T02:08:43.684Z,24.20
2018-08-13T02:11:13.364Z,24.20
2018-08-13T02:13:42.760Z,24.20
2018-08-13T02:16:12.204Z,24.21
2018-08-13T02:18:41.401Z,24.20
2018-08-13T02:21:10.715Z,24.21
2018-08-13T02:23:40.103Z,24.18
2018-08-13T02:26:09.831Z,24.17
2018-08-13T02:28:39.282Z,24.17
2018-08-13T02:31:08.311Z,24.16
2018-08-13T02:33:38.031Z,24.14
2018-08-13T02:36:09.975Z,24.13
2018-08-13T02:38:39.511Z,24.11
2018-08-13T02:41:09.106Z,24.10
2018-08-13T02:43:38.366Z,24.08
2018-08-13T02:46:07.879Z,24.05
2018-08-13T02:48:37.237Z,24.04
2018-08-13T02:51:06.399Z,24.03
2018-08-13T02:53:35.675Z,24.02
2018-08-13T02:56:05.121Z,24.01
2018-08-13T02:58:34.273Z,24.00
2018-08-13T03:01:03.678Z,23.99
2018-08-13T03:03:33.298Z,23.97
2018-08-13T03:06:03.128Z,23.94
2018-08-13T03:08:32.860Z,23.93
2018-08-13T03:11:01.990Z,23.90
2018-08-13T03:13:30.994Z,23.89
2018-08-13T03:16:00.052Z,23.88
2018-08-13T03:18:30.275Z,23.87
2018-08-13T03:20:59.746Z,23.86
2018-08-13T03:23:29.167Z,23.85
2018-08-13T03:25:58.481Z,23.82
2018-08-13T03:28:27.917Z,23.81
2018-08-13T03:30:57.237Z,23.79
2018-08-13T03:33:26.192Z,23.76
2018-08-13T03:35:55.502Z,23.72
2018-08-13T03:38:24.455Z,23.71
2018-08-13T03:40:53.805Z,23.69
2018-08-13T03:43:23.333Z,23.67
2018-08-13T03:45:52.613Z,23.67
2018-08-13T03:48:22.474Z,23.64
2018-08-13T03:50:51.567Z,23.64
2018-08-13T03:53:20.723Z,23.62
2018-08-13T03:55:49.922Z,23.61
2018-08-13T03:58:18.982Z,23.60
2018-08-13T04:00:48.126Z,23.59
2018-08-13T04:03:17.414Z,23.57
2018-08-13T04:05:46.569Z,23.58
2018-08-13T04:08:16.288Z,23.57
2018-08-13T04:10:45.319Z,23.58
2018-08-13T04:13:14.491Z,23.59
2018-08-13T04:15:43.934Z,23.58
2018-08-13T04:18:12.984Z,23.59
2018-08-13T04:20:42.014Z,23.61
2018-08-13T04:23:10.971Z,23.64
2018-08-13T04:25:40.598Z,23.66
2018-08-13T04:28:09.606Z,23.69
2018-08-13T04:30:39.286Z,23.77
2018-08-13T04:33:08.782Z,23.82
2018-08-13T04:35:38.555Z,23.85
2018-08-13T04:38:07.597Z,23.90
2018-08-13T04:40:37.879Z,23.95
2018-08-13T04:43:07.235Z,24.01
2018-08-13T04:45:36.502Z,24.08
2018-08-13T04:48:06.232Z,24.14
2018-08-13T04:50:35.331Z,24.21
2018-08-13T04:53:04.232Z,24.25
2018-08-13T04:55:33.660Z,24.30
2018-08-13T04:58:03.656Z,24.35
2018-08-13T05:00:33.193Z,24.36
2018-08-13T05:03:02.352Z,24.39
2018-08-13T05:05:31.364Z,24.43
2018-08-13T05:08:00.807Z,24.49
2018-08-13T05:10:30.134Z,24.59
2018-08-13T05:12:59.232Z,24.67
2018-08-13T05:15:28.435Z,24.72
2018-08-13T05:17:57.708Z,24.74
2018-08-13T05:20:27.397Z,24.75
2018-08-13T05:22:56.603Z,24.71
2018-08-13T05:25:25.975Z,24.69
2018-08-13T05:27:55.150Z,24.71
2018-08-13T05:30:24.316Z,24.74
2018-08-13T05:32:53.686Z,24.79
2018-08-13T05:35:22.695Z,24.84
2018-08-13T05:37:51.928Z,24.89
2018-08-13T05:40:21.780Z,24.93
2018-08-13T05:42:52.593Z,24.97
2018-08-13T05:45:22.259Z,25.01
2018-08-13T05:47:51.503Z,25.05
2018-08-13T05:50:20.715Z,25.10
2018-08-13T05:52:50.625Z,25.15
2018-08-13T05:55:19.804Z,25.20
2018-08-13T05:57:48.861Z,25.22
2018-08-13T06:00:18.507Z,25.25
2018-08-13T06:02:47.691Z,25.27
2018-08-13T06:05:16.873Z,25.29
2018-08-13T06:07:46.157Z,25.33
2018-08-13T06:10:15.210Z,25.38
2018-08-13T06:12:44.465Z,25.33
2018-08-13T06:15:14.330Z,25.46
2018-08-13T06:17:43.642Z,25.50
2018-08-13T06:20:13.395Z,25.54
2018-08-13T06:22:43.721Z,25.58
2018-08-13T06:25:13.670Z,25.62
2018-08-13T06:27:42.908Z,25.65
2018-08-13T06:30:14.451Z,25.67
2018-08-13T06:32:44.138Z,25.71
2018-08-13T06:35:13.921Z,25.73
2018-08-13T06:37:44.178Z,25.75
2018-08-13T06:40:13.703Z,25.80
2018-08-13T06:42:43.116Z,25.83
2018-08-13T06:45:12.412Z,25.88
2018-08-13T06:47:41.893Z,25.94
2018-08-13T06:50:12.995Z,25.97
2018-08-13T06:52:43.256Z,26.01
2018-08-13T06:55:12.541Z,26.05
2018-08-13T06:57:41.958Z,26.09
2018-08-13T07:00:12.886Z,26.12
2018-08-13T07:02:42.279Z,26.13
2018-08-13T07:05:11.752Z,26.11
2018-08-13T07:07:41.816Z,26.11
2018-08-13T07:10:12.989Z,26.13
2018-08-13T07:12:43.561Z,26.16
2018-08-13T07:15:17.014Z,26.20
2018-08-13T07:17:49.461Z,26.23
2018-08-13T07:20:19.200Z,26.24
2018-08-13T07:22:48.542Z,26.27
2018-08-13T07:25:17.921Z,26.31
2018-08-13T07:27:47.133Z,26.32
2018-08-13T07:30:17.330Z,26.37
2018-08-13T07:32:46.307Z,26.40
2018-08-13T07:35:15.475Z,26.43
2018-08-13T07:37:44.546Z,26.48
2018-08-13T07:40:16.514Z,26.51
2018-08-13T07:42:46.223Z,26.53
2018-08-13T07:45:15.487Z,26.55
2018-08-13T07:47:44.623Z,26.57
2018-08-13T07:50:15.271Z,26.60
2018-08-13T07:52:44.775Z,26.64
2018-08-13T07:55:14.470Z,26.66
2018-08-13T07:57:43.621Z,26.69
2018-08-13T08:00:15.792Z,26.72
2018-08-13T08:02:45.175Z,26.77
2018-08-13T08:05:14.552Z,26.81
2018-08-13T08:07:44.281Z,26.86
2018-08-13T08:10:15.373Z,26.90
2018-08-13T08:12:44.653Z,26.95
2018-08-13T08:15:16.342Z,26.99
2018-08-13T08:17:46.020Z,27.00
2018-08-13T08:20:15.334Z,27.04
2018-08-13T08:22:44.294Z,27.09
2018-08-13T08:25:18.611Z,27.13
2018-08-13T08:27:47.910Z,27.20
2018-08-13T08:30:16.927Z,27.25
2018-08-13T08:32:45.997Z,27.29
2018-08-13T08:35:16.231Z,27.35
2018-08-13T08:37:45.428Z,27.39
2018-08-13T08:40:17.261Z,27.45
2018-08-13T08:42:46.780Z,27.50
2018-08-13T08:45:19.951Z,27.57
2018-08-13T08:47:49.237Z,27.61
2018-08-13T08:50:18.911Z,27.67
2018-08-13T08:52:48.395Z,27.71
2018-08-13T08:55:21.218Z,27.79
2018-08-13T08:57:51.293Z,27.86
2018-08-13T09:00:21.572Z,27.93
2018-08-13T09:02:50.690Z,28.00
2018-08-13T09:05:20.027Z,28.06
2018-08-13T09:07:49.313Z,28.14
2018-08-13T09:10:18.336Z,28.20
2018-08-13T09:12:47.336Z,28.28
2018-08-13T09:15:17.552Z,28.33
2018-08-13T09:17:58.695Z,28.42
2018-08-13T09:20:38.560Z,28.51
2018-08-13T09:23:18.227Z,28.58
2018-08-13T09:25:57.926Z,28.67
2018-08-13T09:28:38.547Z,28.76
2018-08-13T09:31:18.347Z,28.84
2018-08-13T09:33:58.451Z,28.94
2018-08-13T09:36:27.353Z,29.04
2018-08-13T09:38:56.452Z,29.15
2018-08-13T09:41:25.572Z,29.24
2018-08-13T09:43:55.000Z,29.33
2018-08-13T09:46:24.170Z,29.43
2018-08-13T09:48:53.783Z,29.53
2018-08-13T09:51:23.333Z,29.61
2018-08-13T09:53:52.754Z,29.73
2018-08-13T09:56:21.835Z,29.83
2018-08-13T09:58:51.440Z,29.95
2018-08-13T10:01:20.636Z,30.06
2018-08-13T10:03:50.266Z,30.15
2018-08-13T10:06:19.212Z,30.24
2018-08-13T10:08:48.467Z,30.32
2018-08-13T10:11:17.634Z,30.39
2018-08-13T10:13:46.663Z,30.47
2018-08-13T10:16:16.225Z,30.57
2018-08-13T10:18:45.097Z,30.68
2018-08-13T10:21:14.250Z,30.80
2018-08-13T10:23:43.380Z,30.90
2018-08-13T10:26:12.448Z,31.01
2018-08-13T10:28:41.509Z,31.13
2018-08-13T10:31:10.622Z,31.22
2018-08-13T10:33:40.243Z,31.32
2018-08-13T10:36:09.971Z,31.44
2018-08-13T10:38:39.083Z,31.55
2018-08-13T10:41:08.630Z,31.64
2018-08-13T10:43:37.988Z,31.73
2018-08-13T10:46:08.010Z,31.82
2018-08-13T10:48:36.925Z,31.88
2018-08-13T10:51:06.234Z,31.95
2018-08-13T10:53:35.748Z,32.03
2018-08-13T10:56:05.076Z,32.13
2018-08-13T10:58:34.380Z,32.21
2018-08-13T11:01:03.359Z,32.33
2018-08-13T11:03:32.605Z,32.43
2018-08-13T11:06:01.680Z,32.52
2018-08-13T11:08:30.780Z,32.60
2018-08-13T11:10:59.912Z,32.66
2018-08-13T11:13:29.242Z,32.72
2018-08-13T11:15:58.610Z,32.77
2018-08-13T11:18:28.229Z,32.84
2018-08-13T11:20:57.359Z,32.90
2018-08-13T11:23:26.343Z,32.97
2018-08-13T11:25:55.428Z,33.03
2018-08-13T11:28:24.515Z,33.11
2018-08-13T11:30:53.815Z,33.17
2018-08-13T11:33:24.183Z,33.22
2018-08-13T11:35:53.199Z,33.28
2018-08-13T11:38:22.340Z,33.33
2018-08-13T11:40:51.560Z,33.38
2018-08-13T11:43:20.776Z,33.40
2018-08-13T11:45:50.191Z,33.46
2018-08-13T11:48:19.223Z,33.52
2018-08-13T11:50:48.238Z,33.56
2018-08-13T11:53:17.227Z,33.63
2018-08-13T11:55:46.314Z,33.70
2018-08-13T11:58:15.810Z,33.75
2018-08-13T12:00:44.944Z,33.81
2018-08-13T12:03:14.305Z,33.85
2018-08-13T12:05:43.439Z,33.88
2018-08-13T12:08:13.081Z,33.93
2018-08-13T12:10:42.413Z,33.99
2018-08-13T12:13:11.510Z,34.09
2018-08-13T12:15:40.605Z,34.17
2018-08-13T12:18:09.718Z,34.27
2018-08-13T12:20:38.758Z,34.34
2018-08-13T12:23:07.755Z,34.38
2018-08-13T12:25:37.091Z,34.42
2018-08-13T12:28:06.475Z,34.48
2018-08-13T12:30:36.206Z,34.51
2018-08-13T12:33:05.418Z,34.57
2018-08-13T12:35:35.323Z,34.62
2018-08-13T12:38:04.641Z,34.67
2018-08-13T12:40:33.949Z,34.73
2018-08-13T12:43:03.314Z,34.75
2018-08-13T12:45:32.466Z,34.76
2018-08-13T12:48:02.456Z,34.80
2018-08-13T12:50:31.574Z,34.82
2018-08-13T12:53:00.648Z,34.84
2018-08-13T12:55:30.416Z,34.86
2018-08-13T12:57:59.762Z,34.88
2018-08-13T13:00:29.426Z,34.91
2018-08-13T13:02:58.572Z,34.95
2018-08-13T13:05:27.768Z,34.99
2018-08-13T13:07:57.785Z,35.01
2018-08-13T13:10:27.803Z,35.03
2018-08-13T13:12:56.944Z,35.07
2018-08-13T13:15:25.895Z,35.10
2018-08-13T13:17:55.583Z,35.14
2018-08-13T13:20:24.631Z,35.14
2018-08-13T13:22:53.846Z,35.18
2018-08-13T13:25:22.789Z,35.20
2018-08-13T13:27:51.964Z,35.22
2018-08-13T13:30:21.335Z,35.26
2018-08-13T13:32:50.426Z,35.31
2018-08-13T13:35:19.863Z,35.33
2018-08-13T13:37:49.678Z,35.33
2018-08-13T13:40:19.303Z,35.36
2018-08-13T13:42:48.542Z,35.41
2018-08-13T13:45:18.670Z,35.43
2018-08-13T13:47:47.780Z,35.46
2018-08-13T13:50:18.507Z,35.47
2018-08-13T13:52:47.441Z,35.49
2018-08-13T13:55:17.046Z,35.49
2018-08-13T13:57:45.983Z,35.51
2018-08-13T14:00:16.862Z,35.51
2018-08-13T14:02:46.962Z,35.51
2018-08-13T14:05:15.955Z,35.52
2018-08-13T14:07:45.125Z,35.49
2018-08-13T14:10:16.010Z,35.48
2018-08-13T14:12:45.982Z,35.50
2018-08-13T14:15:16.632Z,35.48
2018-08-13T14:17:46.209Z,35.45
2018-08-13T14:20:15.510Z,35.44
2018-08-13T14:22:44.568Z,35.44
2018-08-13T14:25:14.445Z,35.44
2018-08-13T14:27:43.610Z,35.43
2018-08-13T14:37:18.125Z,35.32
2018-08-13T14:39:47.292Z,35.33
2018-08-13T14:42:16.714Z,35.33
2018-08-13T14:44:45.629Z,35.33
2018-08-13T14:47:14.657Z,35.33
2018-08-13T14:49:43.732Z,35.32
2018-08-13T14:52:12.688Z,35.36
2018-08-13T14:54:41.772Z,35.37
2018-08-13T14:57:10.640Z,35.38
2018-08-13T14:59:39.531Z,35.39
2018-08-13T15:02:08.611Z,35.41
2018-08-13T15:04:37.967Z,35.41
2018-08-13T15:07:07.338Z,35.41
2018-08-13T15:09:36.445Z,35.40
2018-08-13T15:12:05.837Z,35.42
2018-08-13T15:14:35.074Z,35.42
2018-08-13T15:17:04.270Z,35.43
2018-08-13T15:19:33.231Z,35.45
2018-08-13T15:22:02.288Z,35.44
2018-08-13T15:24:31.415Z,35.45
2018-08-13T15:27:00.425Z,35.44
2018-08-13T15:29:29.618Z,35.41
2018-08-13T15:31:59.564Z,35.42
2018-08-13T15:34:28.615Z,35.39
2018-08-13T15:36:57.938Z,35.37
2018-08-13T15:39:27.343Z,35.34
2018-08-13T15:41:56.309Z,35.32
2018-08-13T15:44:25.299Z,35.29
2018-08-13T15:46:54.211Z,35.26
2018-08-13T15:49:23.271Z,35.22
2018-08-13T15:51:52.409Z,35.14
2018-08-13T15:54:22.030Z,35.07
2018-08-13T15:56:51.294Z,35.03
2018-08-13T15:59:20.414Z,35.00
2018-08-13T16:01:49.569Z,34.97
2018-08-13T16:04:18.796Z,34.95
2018-08-13T16:06:48.707Z,34.93
2018-08-13T16:09:17.891Z,34.91
2018-08-13T16:11:47.954Z,34.87
2018-08-13T16:14:17.021Z,34.83
2018-08-13T16:16:46.497Z,34.80
2018-08-13T16:19:15.460Z,34.77
2018-08-13T16:21:44.710Z,34.76
2018-08-13T16:24:13.747Z,34.74
2018-08-13T16:26:43.002Z,34.69
2018-08-13T16:29:12.225Z,34.64
2018-08-13T16:31:41.080Z,34.58
2018-08-13T16:34:10.302Z,34.51
2018-08-13T16:36:39.631Z,34.46
2018-08-13T16:39:10.693Z,34.43
2018-08-13T16:41:40.090Z,34.39
2018-08-13T16:44:09.573Z,34.33
2018-08-13T16:46:38.949Z,34.25
2018-08-13T16:49:08.255Z,34.17
2018-08-13T16:51:37.796Z,34.07
2018-08-13T16:54:06.852Z,33.99
2018-08-13T16:56:36.304Z,33.88
2018-08-13T16:59:05.358Z,33.78
2018-08-13T17:01:35.060Z,33.70
2018-08-13T17:04:04.551Z,33.60
2018-08-13T17:06:33.871Z,33.49
2018-08-13T17:09:03.304Z,33.42
2018-08-13T17:11:34.651Z,33.33
2018-08-13T17:14:05.463Z,33.25
2018-08-13T17:16:34.674Z,33.16
2018-08-13T17:19:04.575Z,33.09
2018-08-13T17:21:34.113Z,33.02
2018-08-13T17:24:03.573Z,32.98
2018-08-13T17:26:33.403Z,32.97
2018-08-13T17:29:03.132Z,33.03
2018-08-13T17:31:32.415Z,33.11
2018-08-13T17:34:01.525Z,33.20
2018-08-13T17:36:30.760Z,33.23
2018-08-13T17:39:00.983Z,33.18
2018-08-13T17:41:30.654Z,33.12
2018-08-13T17:44:00.230Z,33.05
2018-08-13T17:46:29.415Z,32.96
2018-08-13T17:48:58.384Z,32.85
2018-08-13T17:51:28.134Z,32.75
2018-08-13T17:53:57.304Z,32.64
2018-08-13T17:56:26.506Z,32.53
2018-08-13T17:58:55.748Z,32.45
2018-08-13T18:01:25.396Z,32.38
2018-08-13T18:03:55.018Z,32.31
2018-08-13T18:06:28.328Z,32.21
2018-08-13T18:08:59.948Z,32.10
2018-08-13T18:11:29.118Z,32.00
2018-08-13T18:13:58.620Z,31.91
2018-08-13T18:16:28.159Z,31.84
2018-08-13T18:18:57.614Z,31.76
2018-08-13T18:21:27.423Z,31.69
2018-08-13T18:23:56.580Z,31.60
2018-08-13T18:26:25.653Z,31.54
2018-08-13T18:28:54.651Z,31.47
2018-08-13T18:31:23.950Z,31.42
2018-08-13T18:33:53.071Z,31.34
2018-08-13T18:36:22.315Z,31.29
2018-08-13T18:38:51.346Z,31.26
2018-08-13T18:41:20.950Z,31.19
2018-08-13T18:43:50.375Z,31.15
2018-08-13T18:46:19.266Z,31.09
2018-08-13T18:48:48.725Z,31.01
2018-08-13T18:51:18.425Z,30.95
2018-08-13T18:53:48.023Z,30.89
2018-08-13T18:56:17.858Z,30.83
2018-08-13T18:58:47.208Z,30.79
2018-08-13T19:01:16.467Z,30.75
2018-08-13T19:03:45.647Z,30.71
2018-08-13T19:06:15.415Z,30.66
2018-08-13T19:08:44.680Z,30.59
2018-08-13T19:11:14.850Z,30.55
2018-08-13T19:13:44.504Z,30.49
2018-08-13T19:16:13.603Z,30.44
2018-08-13T19:18:43.636Z,30.38
2018-08-13T19:21:12.750Z,30.34
2018-08-13T19:23:42.014Z,30.29
2018-08-13T19:26:11.009Z,30.24
2018-08-13T19:28:40.781Z,30.15
2018-08-13T19:31:10.182Z,30.15
2018-08-13T19:33:40.248Z,30.08
2018-08-13T19:36:09.392Z,30.02
2018-08-13T19:38:38.634Z,29.97
2018-08-13T19:41:14.337Z,29.92
2018-08-13T19:43:43.196Z,29.85
2018-08-13T19:46:12.443Z,29.80
2018-08-13T19:48:41.807Z,29.77
2018-08-13T19:51:11.235Z,29.73
2018-08-13T19:53:40.937Z,29.67
2018-08-13T19:56:10.312Z,29.64
2018-08-13T19:58:39.970Z,29.59
2018-08-13T20:01:09.881Z,29.54
2018-08-13T20:03:39.137Z,29.51
2018-08-13T20:06:08.471Z,29.48
2018-08-13T20:08:37.715Z,29.43
2018-08-13T20:11:06.778Z,29.37
2018-08-13T20:13:35.974Z,29.33
2018-08-13T20:16:05.355Z,29.28
2018-08-13T20:18:34.964Z,29.24
2018-08-13T20:21:04.029Z,29.19
2018-08-13T20:23:33.752Z,29.14
2018-08-13T20:26:02.889Z,29.09
2018-08-13T20:28:31.931Z,29.04
2018-08-13T20:31:01.239Z,28.97
2018-08-13T20:33:31.104Z,28.98
2018-08-13T20:36:00.583Z,28.97
2018-08-13T20:38:29.831Z,28.94
2018-08-13T20:40:58.990Z,28.92
2018-08-13T20:43:28.211Z,28.90
2018-08-13T20:45:57.515Z,28.88
2018-08-13T20:48:26.436Z,28.84
2018-08-13T20:50:56.105Z,28.84
2018-08-13T20:53:25.477Z,28.82
2018-08-13T20:55:54.627Z,28.76
2018-08-13T20:58:23.775Z,28.69
2018-08-13T21:00:52.951Z,28.65
2018-08-13T21:03:22.067Z,28.61
2018-08-13T21:05:51.058Z,28.54
2018-08-13T21:08:20.578Z,28.46
2018-08-13T21:10:49.696Z,28.34
2018-08-13T21:13:18.836Z,28.21
2018-08-13T21:15:49.002Z,28.11
2018-08-13T21:18:18.099Z,28.01
2018-08-13T21:20:47.293Z,27.87
2018-08-13T21:23:16.421Z,27.77
2018-08-13T21:25:46.217Z,27.64
2018-08-13T21:28:15.222Z,27.52
2018-08-13T21:30:44.505Z,27.43
2018-08-13T21:33:13.476Z,27.34
2018-08-13T21:35:44.001Z,27.27
2018-08-13T21:38:13.297Z,27.23
2018-08-13T21:40:42.750Z,27.18
2018-08-13T21:43:12.079Z,27.09
2018-08-13T21:45:42.456Z,27.03
2018-08-13T21:48:11.457Z,26.93
2018-08-13T21:50:40.462Z,26.84
2018-08-13T21:53:10.622Z,26.78
2018-08-13T21:55:40.155Z,26.68
2018-08-13T21:58:14.056Z,26.59
2018-08-13T22:00:48.216Z,26.50
2018-08-13T22:03:17.090Z,26.41
2018-08-13T22:05:46.394Z,26.32
2018-08-13T22:08:16.811Z,26.23
2018-08-13T22:10:45.999Z,26.13
2018-08-13T22:13:15.114Z,26.01
2018-08-13T22:15:45.077Z,25.93
2018-08-13T22:18:14.302Z,25.80
2018-08-13T22:20:43.268Z,25.69
2018-08-13T22:23:12.827Z,25.60
2018-08-13T22:25:46.238Z,25.52
2018-08-13T22:28:16.770Z,25.43
2018-08-13T22:30:45.786Z,25.34
2018-08-13T22:33:15.643Z,25.27
2018-08-13T22:35:44.680Z,25.22
2018-08-13T22:38:14.577Z,25.17
2018-08-13T22:40:43.837Z,25.09
2018-08-13T22:43:13.220Z,25.04
2018-08-13T22:45:42.233Z,24.97
2018-08-13T22:48:11.400Z,24.90
2018-08-13T22:50:40.518Z,24.84
2018-08-13T22:53:09.610Z,24.78
2018-08-13T22:55:38.717Z,24.71
2018-08-13T22:58:08.003Z,24.65
2018-08-13T23:00:37.212Z,24.60
2018-08-13T23:03:06.816Z,24.54
2018-08-13T23:05:36.094Z,24.48
2018-08-13T23:08:05.007Z,24.42
2018-08-13T23:10:34.130Z,24.36
2018-08-13T23:13:03.703Z,24.30
2018-08-13T23:15:32.818Z,24.25
2018-08-13T23:18:01.914Z,24.21
2018-08-13T23:20:30.946Z,24.19
2018-08-13T23:23:03.848Z,24.15
2018-08-13T23:25:34.253Z,24.12
2018-08-13T23:28:04.849Z,24.12
2018-08-13T23:30:33.962Z,24.09
2018-08-13T23:33:03.363Z,24.08
2018-08-13T23:35:32.844Z,24.02
2018-08-13T23:38:02.043Z,23.99
2018-08-13T23:40:31.150Z,23.96
2018-08-13T23:43:00.468Z,23.92
2018-08-13T23:45:30.934Z,23.88
2018-08-13T23:48:00.355Z,23.87
2018-08-13T23:50:29.604Z,23.87
2018-08-13T23:53:00.765Z,23.87
2018-08-13T23:55:32.763Z,23.88
2018-08-13T23:58:02.102Z,23.86
